createdAt,value
2018-02-27T00:00:16.519Z,20.39
2018-02-27T00:00:48.149Z,20.41
2018-02-27T00:01:19.830Z,20.40
2018-02-27T00:01:51.459Z,20.40
2018-02-27T00:02:23.094Z,20.45
2018-02-27T00:02:54.726Z,20.48
2018-02-27T00:03:26.350Z,20.46
2018-02-27T00:03:57.978Z,20.48
2018-02-27T00:04:29.606Z,20.59
2018-02-27T00:05:01.230Z,20.60
2018-02-27T00:05:32.866Z,20.62
2018-02-27T00:06:04.490Z,20.65
2018-02-27T00:06:36.153Z,20.68
2018-02-27T00:07:07.773Z,20.72
2018-02-27T00:07:39.402Z,20.71
2018-02-27T00:08:11.026Z,20.72
2018-02-27T00:08:42.702Z,20.71
2018-02-27T00:09:14.326Z,20.76
2018-02-27T00:09:45.954Z,20.78
2018-02-27T00:10:17.589Z,20.79
2018-02-27T00:10:49.217Z,20.82
2018-02-27T00:11:20.841Z,20.83
2018-02-27T00:11:52.471Z,20.88
2018-02-27T00:12:24.093Z,20.89
2018-02-27T00:12:55.730Z,20.91
2018-02-27T00:13:27.358Z,20.95
2018-02-27T00:13:59.030Z,20.96
2018-02-27T00:14:30.654Z,20.94
2018-02-27T00:15:02.278Z,20.95
2018-02-27T00:15:33.905Z,20.95
2018-02-27T00:16:05.529Z,20.89
2018-02-27T00:16:37.156Z,20.86
2018-02-27T00:17:08.786Z,20.89
2018-02-27T00:17:40.409Z,20.89
2018-02-27T00:18:12.033Z,20.90
2018-02-27T00:18:43.659Z,20.88
2018-02-27T00:19:15.330Z,20.89
2018-02-27T00:19:46.962Z,20.86
2018-02-27T00:20:18.589Z,20.87
2018-02-27T00:20:50.213Z,20.86
2018-02-27T00:21:21.846Z,20.83
2018-02-27T00:21:53.470Z,20.85
2018-02-27T00:22:25.113Z,20.82
2018-02-27T00:22:56.762Z,20.80
2018-02-27T00:23:28.427Z,20.79
2018-02-27T00:24:00.058Z,20.79
2018-02-27T00:24:31.734Z,20.84
2018-02-27T00:25:03.362Z,20.82
2018-02-27T00:25:34.993Z,20.81
2018-02-27T00:26:06.617Z,20.81
2018-02-27T00:26:38.247Z,20.80
2018-02-27T00:27:09.879Z,20.78
2018-02-27T00:27:41.514Z,20.78
2018-02-27T00:28:13.137Z,20.75
2018-02-27T00:28:44.762Z,20.73
2018-02-27T00:29:16.386Z,20.71
2018-02-27T00:29:48.074Z,20.68
2018-02-27T00:30:19.700Z,20.69
2018-02-27T00:30:51.325Z,20.65
2018-02-27T00:31:22.946Z,20.63
2018-02-27T00:31:54.570Z,20.62
2018-02-27T00:32:26.194Z,20.58
2018-02-27T00:32:57.826Z,20.57
2018-02-27T00:33:29.455Z,20.55
2018-02-27T00:34:01.078Z,20.52
2018-02-27T00:34:32.702Z,20.53
2018-02-27T00:35:04.322Z,20.53
2018-02-27T00:35:35.945Z,20.49
2018-02-27T00:36:07.578Z,20.45
2018-02-27T00:36:39.209Z,20.47
2018-02-27T00:37:10.838Z,20.45
2018-02-27T00:37:42.470Z,20.45
2018-02-27T00:38:14.098Z,20.41
2018-02-27T00:38:45.721Z,20.38
2018-02-27T00:39:17.350Z,20.38
2018-02-27T00:39:49.018Z,20.36
2018-02-27T00:40:20.650Z,20.34
2018-02-27T00:40:52.278Z,20.33
2018-02-27T00:41:23.906Z,20.29
2018-02-27T00:41:55.537Z,20.27
2018-02-27T00:42:27.170Z,20.26
2018-02-27T00:42:58.798Z,20.27
2018-02-27T00:43:30.430Z,20.25
2018-02-27T00:44:02.060Z,20.23
2018-02-27T00:44:33.687Z,20.23
2018-02-27T00:45:05.355Z,20.21
2018-02-27T00:45:37.022Z,20.22
2018-02-27T00:46:08.650Z,20.23
2018-02-27T00:46:40.278Z,20.23
2018-02-27T00:47:11.902Z,20.21
2018-02-27T00:47:43.530Z,20.18
2018-02-27T00:48:15.154Z,20.19
2018-02-27T00:48:46.778Z,20.18
2018-02-27T00:49:18.401Z,20.14
2018-02-27T00:49:50.023Z,20.15
2018-02-27T00:50:21.694Z,20.12
2018-02-27T00:50:53.318Z,20.08
2018-02-27T00:51:24.947Z,20.04
2018-02-27T00:51:56.575Z,20.03
2018-02-27T00:52:28.202Z,20.03
2018-02-27T00:52:59.833Z,20.00
2018-02-27T00:53:31.462Z,19.97
2018-02-27T00:54:03.085Z,19.97
2018-02-27T00:54:34.714Z,19.97
2018-02-27T00:55:06.337Z,19.97
2018-02-27T00:55:37.972Z,19.96
2018-02-27T00:56:09.648Z,19.93
2018-02-27T00:56:41.313Z,19.95
2018-02-27T00:57:12.934Z,19.91
2018-02-27T00:57:44.561Z,19.89
2018-02-27T00:58:16.186Z,19.88
2018-02-27T00:58:47.809Z,19.88
2018-02-27T00:59:19.434Z,19.88
2018-02-27T00:59:51.058Z,19.86
2018-02-27T01:00:22.686Z,19.84
2018-02-27T01:00:54.315Z,19.85
2018-02-27T01:01:25.981Z,19.83
2018-02-27T01:01:57.609Z,19.83
2018-02-27T01:02:29.247Z,19.80
2018-02-27T01:03:00.878Z,19.80
2018-02-27T01:03:32.506Z,19.78
2018-02-27T01:04:04.190Z,19.78
2018-02-27T01:04:35.813Z,19.78
2018-02-27T01:05:07.442Z,19.76
2018-02-27T01:05:39.065Z,19.75
2018-02-27T01:06:10.686Z,19.74
2018-02-27T01:06:42.310Z,19.78
2018-02-27T01:07:13.938Z,19.80
2018-02-27T01:07:45.561Z,19.81
2018-02-27T01:08:17.182Z,19.83
2018-02-27T01:08:48.810Z,19.83
2018-02-27T01:09:20.482Z,19.83
2018-02-27T01:09:52.110Z,19.85
2018-02-27T01:10:23.738Z,19.88
2018-02-27T01:10:55.367Z,19.90
2018-02-27T01:11:26.994Z,19.90
2018-02-27T01:11:58.658Z,19.89
2018-02-27T01:12:30.282Z,19.91
2018-02-27T01:13:01.909Z,19.93
2018-02-27T01:13:33.534Z,19.96
2018-02-27T01:14:05.162Z,19.98
2018-02-27T01:14:36.787Z,19.98
2018-02-27T01:15:08.422Z,20.06
2018-02-27T01:15:40.050Z,20.07
2018-02-27T01:16:11.679Z,20.09
2018-02-27T01:16:43.307Z,20.12
2018-02-27T01:17:14.974Z,20.12
2018-02-27T01:17:46.607Z,20.15
2018-02-27T01:18:18.233Z,20.18
2018-02-27T01:18:49.898Z,20.19
2018-02-27T01:19:21.522Z,20.22
2018-02-27T01:19:53.151Z,20.27
2018-02-27T01:20:24.817Z,20.28
2018-02-27T01:20:56.442Z,20.29
2018-02-27T01:21:28.071Z,20.32
2018-02-27T01:21:59.695Z,20.35
2018-02-27T01:22:31.318Z,20.40
2018-02-27T01:23:02.943Z,20.40
2018-02-27T01:23:34.615Z,20.46
2018-02-27T01:24:06.246Z,20.49
2018-02-27T01:24:37.870Z,20.55
2018-02-27T01:25:09.554Z,20.56
2018-02-27T01:25:41.186Z,20.62
2018-02-27T01:26:12.821Z,20.60
2018-02-27T01:26:44.455Z,20.62
2018-02-27T01:27:16.078Z,20.64
2018-02-27T01:27:47.701Z,20.68
2018-02-27T01:28:19.330Z,20.71
2018-02-27T01:28:50.954Z,20.72
2018-02-27T01:29:22.578Z,20.74
2018-02-27T01:29:54.206Z,20.78
2018-02-27T01:30:25.874Z,20.75
2018-02-27T01:30:57.543Z,20.79
2018-02-27T01:31:29.166Z,20.80
2018-02-27T01:32:00.798Z,20.81
2018-02-27T01:32:32.421Z,20.81
2018-02-27T01:33:04.046Z,20.84
2018-02-27T01:33:35.674Z,20.84
2018-02-27T01:34:07.302Z,20.84
2018-02-27T01:34:38.931Z,20.81
2018-02-27T01:35:10.562Z,20.84
2018-02-27T01:35:42.249Z,20.85
2018-02-27T01:36:13.880Z,20.86
2018-02-27T01:36:45.519Z,20.85
2018-02-27T01:37:17.146Z,20.89
2018-02-27T01:37:48.769Z,20.83
2018-02-27T01:38:20.394Z,20.81
2018-02-27T01:38:52.021Z,20.81
2018-02-27T01:39:23.646Z,20.81
2018-02-27T01:39:55.270Z,20.78
2018-02-27T01:40:26.894Z,20.78
2018-02-27T01:40:58.572Z,20.75
2018-02-27T01:41:30.197Z,20.74
2018-02-27T01:42:01.827Z,20.71
2018-02-27T01:42:33.458Z,20.76
2018-02-27T01:43:05.083Z,20.71
2018-02-27T01:43:36.710Z,20.75
2018-02-27T01:44:08.363Z,20.73
2018-02-27T01:44:39.996Z,20.69
2018-02-27T01:45:11.627Z,20.65
2018-02-27T01:45:43.252Z,20.63
2018-02-27T01:46:14.925Z,20.65
2018-02-27T01:46:46.555Z,20.63
2018-02-27T01:47:18.181Z,20.59
2018-02-27T01:47:49.810Z,20.61
2018-02-27T01:48:21.442Z,20.62
2018-02-27T01:48:53.067Z,20.61
2018-02-27T01:49:24.690Z,20.58
2018-02-27T01:49:56.314Z,20.54
2018-02-27T01:50:27.942Z,20.51
2018-02-27T01:50:59.569Z,20.51
2018-02-27T01:51:31.202Z,20.48
2018-02-27T01:52:02.825Z,20.47
2018-02-27T01:52:34.453Z,20.43
2018-02-27T01:53:06.077Z,20.42
2018-02-27T01:53:37.697Z,20.43
2018-02-27T01:54:09.322Z,20.38
2018-02-27T01:54:40.956Z,20.37
2018-02-27T01:55:12.577Z,20.36
2018-02-27T01:55:44.214Z,20.33
2018-02-27T01:56:15.838Z,20.33
2018-02-27T01:56:47.505Z,20.33
2018-02-27T01:57:19.126Z,20.30
2018-02-27T01:57:50.751Z,20.27
2018-02-27T01:58:22.373Z,20.26
2018-02-27T01:58:54.002Z,20.23
2018-02-27T01:59:25.625Z,20.22
2018-02-27T01:59:57.249Z,20.20
2018-02-27T02:00:28.873Z,20.21
2018-02-27T02:01:00.498Z,20.19
2018-02-27T02:01:32.127Z,20.18
2018-02-27T02:02:03.789Z,20.18
2018-02-27T02:02:35.410Z,20.18
2018-02-27T02:03:07.098Z,20.15
2018-02-27T02:03:38.722Z,20.14
2018-02-27T02:04:10.346Z,20.13
2018-02-27T02:04:41.978Z,20.08
2018-02-27T02:05:13.606Z,20.06
2018-02-27T02:05:45.230Z,20.04
2018-02-27T02:06:16.862Z,20.01
2018-02-27T02:06:48.590Z,20.01
2018-02-27T02:07:20.218Z,19.99
2018-02-27T02:07:51.837Z,20.00
2018-02-27T02:08:23.461Z,20.00
2018-02-27T02:08:55.090Z,19.97
2018-02-27T02:09:26.718Z,19.95
2018-02-27T02:09:58.350Z,19.92
2018-02-27T02:10:29.979Z,19.92
2018-02-27T02:11:01.603Z,19.92
2018-02-27T02:11:33.275Z,19.87
2018-02-27T02:12:05.004Z,19.84
2018-02-27T02:12:36.635Z,19.82
2018-02-27T02:13:08.261Z,19.81
2018-02-27T02:13:39.882Z,19.80
2018-02-27T02:14:11.546Z,19.76
2018-02-27T02:14:43.170Z,19.77
2018-02-27T02:15:14.795Z,19.76
2018-02-27T02:15:46.417Z,19.78
2018-02-27T02:16:18.056Z,19.78
2018-02-27T02:16:49.742Z,19.78
2018-02-27T02:17:21.367Z,19.77
2018-02-27T02:17:52.994Z,19.75
2018-02-27T02:18:24.622Z,19.76
2018-02-27T02:18:56.258Z,19.72
2018-02-27T02:19:27.881Z,19.68
2018-02-27T02:19:59.506Z,19.69
2018-02-27T02:20:31.131Z,19.68
2018-02-27T02:21:02.754Z,19.71
2018-02-27T02:21:34.378Z,19.71
2018-02-27T02:22:06.046Z,19.72
2018-02-27T02:22:37.701Z,19.73
2018-02-27T02:23:09.326Z,19.74
2018-02-27T02:23:40.950Z,19.72
2018-02-27T02:24:12.570Z,19.71
2018-02-27T02:24:44.193Z,19.71
2018-02-27T02:25:15.866Z,19.70
2018-02-27T02:25:47.491Z,19.70
2018-02-27T02:26:19.118Z,19.72
2018-02-27T02:26:50.747Z,19.73
2018-02-27T02:27:22.377Z,19.72
2018-02-27T02:27:54.010Z,19.73
2018-02-27T02:28:25.637Z,19.73
2018-02-27T02:28:57.266Z,19.75
2018-02-27T02:29:28.895Z,19.75
2018-02-27T02:30:00.523Z,19.78
2018-02-27T02:30:32.210Z,19.77
2018-02-27T02:31:03.838Z,19.80
2018-02-27T02:31:35.462Z,19.82
2018-02-27T02:32:07.086Z,19.83
2018-02-27T02:32:38.709Z,19.86
2018-02-27T02:33:10.338Z,19.90
2018-02-27T02:33:41.971Z,19.91
2018-02-27T02:34:13.604Z,19.91
2018-02-27T02:34:45.236Z,19.96
2018-02-27T02:35:16.863Z,20.00
2018-02-27T02:35:48.496Z,20.06
2018-02-27T02:36:20.122Z,20.06
2018-02-27T02:36:51.745Z,20.09
2018-02-27T02:37:23.379Z,20.09
2018-02-27T02:37:55.010Z,20.12
2018-02-27T02:38:26.639Z,20.16
2018-02-27T02:38:58.268Z,20.20
2018-02-27T02:39:29.955Z,20.23
2018-02-27T02:40:01.578Z,20.28
2018-02-27T02:40:33.210Z,20.32
2018-02-27T02:41:04.834Z,20.39
2018-02-27T02:41:36.495Z,20.43
2018-02-27T02:42:08.122Z,20.49
2018-02-27T02:42:39.758Z,20.48
2018-02-27T02:43:11.383Z,20.52
2018-02-27T02:43:43.011Z,20.49
2018-02-27T02:44:14.646Z,20.51
2018-02-27T02:44:46.330Z,20.58
2018-02-27T02:45:17.953Z,20.61
2018-02-27T02:45:49.574Z,20.61
2018-02-27T02:46:21.202Z,20.67
2018-02-27T02:46:52.825Z,20.70
2018-02-27T02:47:24.450Z,20.75
2018-02-27T02:47:56.108Z,20.76
2018-02-27T02:48:27.742Z,20.74
2018-02-27T02:48:59.366Z,20.74
2018-02-27T02:49:30.999Z,20.85
2018-02-27T02:50:02.679Z,20.92
2018-02-27T02:50:34.305Z,20.94
2018-02-27T02:51:05.934Z,20.92
2018-02-27T02:51:37.561Z,20.90
2018-02-27T02:52:09.185Z,20.88
2018-02-27T02:52:40.814Z,20.83
2018-02-27T02:53:12.442Z,20.79
2018-02-27T02:53:44.071Z,20.83
2018-02-27T02:54:15.697Z,20.75
2018-02-27T02:54:47.322Z,20.76
2018-02-27T02:55:18.998Z,20.74
2018-02-27T02:55:50.622Z,20.76
2018-02-27T02:56:22.245Z,20.76
2018-02-27T02:56:53.873Z,20.72
2018-02-27T02:57:25.502Z,20.71
2018-02-27T02:57:57.131Z,20.74
2018-02-27T02:58:28.763Z,20.71
2018-02-27T02:59:00.387Z,20.72
2018-02-27T02:59:32.014Z,20.75
2018-02-27T03:00:03.644Z,20.69
2018-02-27T03:00:35.266Z,20.71
2018-02-27T03:01:07.361Z,20.70
2018-02-27T03:01:38.981Z,20.67
2018-02-27T03:02:10.648Z,20.64
2018-02-27T03:02:42.271Z,20.63
2018-02-27T03:03:13.902Z,20.58
2018-02-27T03:03:45.525Z,20.53
2018-02-27T03:04:17.154Z,20.52
2018-02-27T03:04:48.779Z,20.54
2018-02-27T03:05:20.402Z,20.55
2018-02-27T03:05:52.026Z,20.52
2018-02-27T03:06:23.654Z,20.51
2018-02-27T03:06:55.277Z,20.51
2018-02-27T03:07:26.950Z,20.53
2018-02-27T03:07:58.570Z,20.53
2018-02-27T03:08:30.202Z,20.53
2018-02-27T03:09:01.834Z,20.54
2018-02-27T03:09:33.462Z,20.52
2018-02-27T03:10:05.086Z,20.53
2018-02-27T03:10:36.709Z,20.52
2018-02-27T03:11:08.334Z,20.45
2018-02-27T03:11:39.966Z,20.41
2018-02-27T03:12:11.601Z,20.39
2018-02-27T03:12:43.222Z,20.33
2018-02-27T03:13:14.846Z,20.30
2018-02-27T03:13:46.470Z,20.32
2018-02-27T03:14:18.098Z,20.31
2018-02-27T03:14:49.730Z,20.32
2018-02-27T03:15:21.394Z,20.31
2018-02-27T03:15:53.071Z,20.27
2018-02-27T03:16:24.694Z,20.21
2018-02-27T03:16:56.322Z,20.19
2018-02-27T03:17:27.947Z,20.19
2018-02-27T03:17:59.574Z,20.17
2018-02-27T03:18:31.198Z,20.17
2018-02-27T03:19:02.827Z,20.15
2018-02-27T03:19:34.450Z,20.16
2018-02-27T03:20:06.079Z,20.16
2018-02-27T03:20:37.752Z,20.17
2018-02-27T03:21:09.387Z,20.12
2018-02-27T03:21:41.018Z,20.12
2018-02-27T03:22:12.645Z,20.10
2018-02-27T03:22:44.310Z,20.11
2018-02-27T03:23:15.933Z,20.07
2018-02-27T03:23:47.559Z,20.03
2018-02-27T03:24:19.182Z,20.04
2018-02-27T03:24:50.810Z,20.02
2018-02-27T03:25:22.434Z,20.01
2018-02-27T03:25:54.097Z,20.03
2018-02-27T03:26:25.718Z,20.00
2018-02-27T03:26:57.347Z,19.99
2018-02-27T03:27:28.970Z,19.96
2018-02-27T03:28:00.642Z,19.94
2018-02-27T03:28:32.274Z,19.96
2018-02-27T03:29:03.906Z,19.92
2018-02-27T03:29:35.541Z,19.90
2018-02-27T03:30:07.178Z,19.89
2018-02-27T03:30:38.807Z,19.86
2018-02-27T03:31:10.439Z,19.88
2018-02-27T03:31:42.094Z,19.88
2018-02-27T03:32:13.722Z,19.85
2018-02-27T03:32:45.346Z,19.84
2018-02-27T03:33:16.978Z,19.85
2018-02-27T03:33:48.602Z,19.83
2018-02-27T03:34:20.226Z,19.82
2018-02-27T03:34:51.851Z,19.83
2018-02-27T03:35:23.475Z,19.84
2018-02-27T03:35:55.101Z,19.84
2018-02-27T03:36:26.730Z,19.82
2018-02-27T03:36:58.359Z,19.81
2018-02-27T03:37:30.030Z,19.79
2018-02-27T03:38:01.651Z,19.79
2018-02-27T03:38:33.278Z,19.81
2018-02-27T03:39:04.902Z,19.79
2018-02-27T03:39:36.532Z,19.78
2018-02-27T03:40:08.166Z,19.77
2018-02-27T03:40:39.794Z,19.79
2018-02-27T03:41:11.418Z,19.77
2018-02-27T03:41:43.086Z,19.76
2018-02-27T03:42:14.718Z,19.79
2018-02-27T03:42:46.375Z,19.80
2018-02-27T03:43:18.042Z,19.86
2018-02-27T03:43:49.666Z,19.86
2018-02-27T03:44:21.302Z,19.88
2018-02-27T03:44:52.926Z,19.89
2018-02-27T03:45:24.554Z,19.89
2018-02-27T03:45:56.179Z,19.85
2018-02-27T03:46:27.810Z,19.87
2018-02-27T03:46:59.447Z,19.86
2018-02-27T03:47:31.078Z,19.88
2018-02-27T03:48:02.722Z,19.89
2018-02-27T03:48:34.399Z,19.90
2018-02-27T03:49:06.702Z,19.91
2018-02-27T03:49:38.325Z,19.97
2018-02-27T03:50:09.992Z,19.97
2018-02-27T03:50:41.622Z,20.06
2018-02-27T03:51:13.246Z,20.17
2018-02-27T03:51:44.875Z,20.24
2018-02-27T03:52:16.498Z,20.31
2018-02-27T03:52:48.122Z,20.36
2018-02-27T03:53:19.754Z,20.43
2018-02-27T03:53:51.520Z,20.47
2018-02-27T03:54:23.145Z,20.44
2018-02-27T03:54:54.770Z,20.44
2018-02-27T03:55:26.394Z,20.43
2018-02-27T03:55:58.058Z,20.44
2018-02-27T03:56:29.690Z,20.45
2018-02-27T03:57:01.318Z,20.43
2018-02-27T03:57:32.943Z,20.44
2018-02-27T03:58:04.574Z,20.45
2018-02-27T03:58:36.201Z,20.49
2018-02-27T03:59:07.826Z,20.51
2018-02-27T03:59:39.454Z,20.51
2018-02-27T04:00:11.083Z,20.56
2018-02-27T04:00:42.757Z,20.60
2018-02-27T04:01:14.433Z,20.64
2018-02-27T04:01:46.061Z,20.66
2018-02-27T04:02:17.690Z,20.71
2018-02-27T04:02:49.314Z,20.82
2018-02-27T04:03:20.942Z,20.93
2018-02-27T04:03:52.566Z,20.96
2018-02-27T04:04:24.198Z,21.01
2018-02-27T04:04:55.831Z,21.10
2018-02-27T04:05:27.457Z,21.01
2018-02-27T04:05:59.081Z,20.89
2018-02-27T04:06:30.750Z,20.88
2018-02-27T04:07:02.374Z,20.88
2018-02-27T04:07:33.998Z,20.84
2018-02-27T04:08:05.625Z,20.84
2018-02-27T04:08:37.253Z,20.83
2018-02-27T04:09:08.922Z,20.83
2018-02-27T04:09:40.546Z,20.84
2018-02-27T04:10:12.174Z,20.77
2018-02-27T04:10:43.798Z,20.79
2018-02-27T04:11:15.693Z,20.77
2018-02-27T04:11:47.322Z,20.77
2018-02-27T04:12:18.951Z,20.77
2018-02-27T04:12:50.579Z,20.79
2018-02-27T04:13:22.201Z,20.77
2018-02-27T04:13:53.826Z,20.77
2018-02-27T04:14:25.467Z,20.75
2018-02-27T04:14:57.094Z,20.73
2018-02-27T04:15:28.718Z,20.72
2018-02-27T04:16:00.341Z,20.71
2018-02-27T04:16:32.010Z,20.71
2018-02-27T04:17:03.634Z,20.73
2018-02-27T04:17:35.257Z,20.65
2018-02-27T04:18:06.931Z,20.65
2018-02-27T04:18:38.562Z,20.63
2018-02-27T04:19:10.191Z,20.61
2018-02-27T04:19:41.822Z,20.60
2018-02-27T04:20:13.446Z,20.58
2018-02-27T04:20:45.069Z,20.57
2018-02-27T04:21:16.693Z,20.59
2018-02-27T04:21:48.322Z,20.54
2018-02-27T04:22:19.951Z,20.52
2018-02-27T04:22:51.574Z,20.49
2018-02-27T04:23:23.253Z,20.47
2018-02-27T04:23:54.874Z,20.45
2018-02-27T04:24:26.498Z,20.42
2018-02-27T04:24:58.123Z,20.40
2018-02-27T04:25:29.746Z,20.37
2018-02-27T04:26:01.370Z,20.33
2018-02-27T04:26:32.998Z,20.29
2018-02-27T04:27:04.630Z,20.27
2018-02-27T04:27:36.258Z,20.29
2018-02-27T04:28:07.881Z,20.29
2018-02-27T04:28:39.661Z,20.25
2018-02-27T04:29:11.290Z,20.25
2018-02-27T04:29:42.922Z,20.21
2018-02-27T04:30:14.558Z,20.21
2018-02-27T04:30:46.190Z,20.18
2018-02-27T04:31:17.814Z,20.16
2018-02-27T04:31:49.439Z,20.15
2018-02-27T04:32:21.071Z,20.09
2018-02-27T04:32:52.702Z,20.09
2018-02-27T04:33:24.330Z,20.05
2018-02-27T04:33:55.994Z,20.03
2018-02-27T04:34:27.627Z,19.98
2018-02-27T04:34:59.258Z,19.97
2018-02-27T04:35:30.886Z,19.96
2018-02-27T04:36:02.510Z,19.93
2018-02-27T04:36:34.134Z,19.91
2018-02-27T04:37:05.761Z,19.89
2018-02-27T04:37:37.450Z,19.88
2018-02-27T04:38:09.083Z,19.87
2018-02-27T04:38:40.710Z,19.84
2018-02-27T04:39:12.337Z,19.83
2018-02-27T04:39:43.967Z,19.82
2018-02-27T04:40:15.598Z,19.82
2018-02-27T04:40:47.222Z,19.81
2018-02-27T04:41:18.894Z,19.79
2018-02-27T04:41:50.517Z,19.74
2018-02-27T04:42:22.142Z,19.74
2018-02-27T04:42:53.770Z,19.74
2018-02-27T04:43:25.404Z,19.71
2018-02-27T04:43:57.029Z,19.69
2018-02-27T04:44:28.649Z,19.67
2018-02-27T04:45:00.284Z,19.65
2018-02-27T04:45:31.905Z,19.65
2018-02-27T04:46:03.579Z,19.65
2018-02-27T04:46:35.208Z,19.65
2018-02-27T04:47:06.830Z,19.65
2018-02-27T04:47:38.458Z,19.64
2018-02-27T04:48:10.081Z,19.63
2018-02-27T04:48:41.706Z,19.61
2018-02-27T04:49:13.335Z,19.60
2018-02-27T04:49:44.967Z,19.59
2018-02-27T04:50:16.593Z,19.59
2018-02-27T04:50:48.272Z,19.58
2018-02-27T04:51:19.897Z,19.57
2018-02-27T04:51:51.526Z,19.53
2018-02-27T04:52:23.158Z,19.51
2018-02-27T04:52:54.781Z,19.49
2018-02-27T04:53:26.405Z,19.50
2018-02-27T04:53:58.034Z,19.50
2018-02-27T04:54:29.654Z,19.50
2018-02-27T04:55:01.279Z,19.49
2018-02-27T04:55:32.910Z,19.47
2018-02-27T04:56:04.582Z,19.48
2018-02-27T04:56:36.210Z,19.48
2018-02-27T04:57:07.833Z,19.48
2018-02-27T04:57:39.461Z,19.48
2018-02-27T04:58:11.090Z,19.48
2018-02-27T04:58:42.714Z,19.49
2018-02-27T04:59:14.338Z,19.51
2018-02-27T04:59:45.962Z,19.50
2018-02-27T05:00:17.586Z,19.51
2018-02-27T05:00:49.210Z,19.50
2018-02-27T05:01:20.860Z,19.51
2018-02-27T05:01:52.486Z,19.50
2018-02-27T05:02:24.167Z,19.52
2018-02-27T05:02:55.795Z,19.51
2018-02-27T05:03:27.427Z,19.49
2018-02-27T05:03:59.097Z,19.50
2018-02-27T05:04:30.730Z,19.48
2018-02-27T05:05:02.353Z,19.46
2018-02-27T05:05:34.010Z,19.45
2018-02-27T05:06:05.641Z,19.46
2018-02-27T05:06:37.270Z,19.45
2018-02-27T05:07:09.018Z,19.45
2018-02-27T05:07:40.689Z,19.45
2018-02-27T05:08:12.323Z,19.43
2018-02-27T05:08:43.951Z,19.42
2018-02-27T05:09:15.586Z,19.40
2018-02-27T05:09:47.223Z,19.37
2018-02-27T05:10:18.853Z,19.35
2018-02-27T05:10:50.482Z,19.35
2018-02-27T05:11:22.106Z,19.32
2018-02-27T05:11:53.730Z,19.31
2018-02-27T05:12:25.362Z,19.30
2018-02-27T05:12:57.030Z,19.29
2018-02-27T05:13:28.657Z,19.26
2018-02-27T05:14:00.286Z,19.27
2018-02-27T05:14:31.914Z,19.25
2018-02-27T05:15:03.539Z,19.24
2018-02-27T05:15:35.161Z,19.25
2018-02-27T05:16:06.854Z,19.23
2018-02-27T05:16:38.531Z,19.23
2018-02-27T05:17:10.163Z,19.22
2018-02-27T05:17:41.796Z,19.22
2018-02-27T05:18:13.470Z,19.23
2018-02-27T05:18:45.106Z,19.23
2018-02-27T05:19:16.762Z,19.24
2018-02-27T05:19:48.390Z,19.27
2018-02-27T05:20:20.014Z,19.31
2018-02-27T05:20:51.638Z,19.33
2018-02-27T05:21:23.265Z,19.38
2018-02-27T05:21:54.894Z,19.42
2018-02-27T05:22:26.557Z,19.48
2018-02-27T05:22:58.189Z,19.53
2018-02-27T05:23:29.819Z,19.56
2018-02-27T05:24:01.445Z,19.61
2018-02-27T05:24:33.114Z,19.64
2018-02-27T05:25:04.746Z,19.70
2018-02-27T05:25:36.369Z,19.74
2018-02-27T05:26:07.994Z,19.76
2018-02-27T05:26:39.618Z,19.85
2018-02-27T05:27:11.290Z,19.89
2018-02-27T05:27:42.918Z,19.91
2018-02-27T05:28:14.541Z,19.93
2018-02-27T05:28:46.218Z,19.98
2018-02-27T05:29:17.842Z,19.97
2018-02-27T05:29:49.466Z,20.00
2018-02-27T05:30:21.091Z,20.01
2018-02-27T05:30:52.714Z,20.00
2018-02-27T05:31:24.345Z,20.00
2018-02-27T05:31:55.970Z,20.07
2018-02-27T05:32:27.603Z,20.05
2018-02-27T05:32:59.230Z,20.05
2018-02-27T05:33:30.853Z,20.05
2018-02-27T05:34:02.517Z,20.11
2018-02-27T05:34:34.142Z,20.12
2018-02-27T05:35:05.767Z,20.18
2018-02-27T05:35:37.393Z,20.19
2018-02-27T05:36:09.018Z,20.17
2018-02-27T05:36:40.647Z,20.18
2018-02-27T05:37:12.270Z,20.20
2018-02-27T05:37:43.893Z,20.21
2018-02-27T05:38:15.523Z,20.22
2018-02-27T05:38:47.151Z,20.25
2018-02-27T05:39:18.822Z,20.26
2018-02-27T05:39:50.462Z,20.29
2018-02-27T05:40:22.090Z,20.28
2018-02-27T05:40:53.722Z,20.35
2018-02-27T05:41:25.346Z,20.34
2018-02-27T05:41:56.974Z,20.40
2018-02-27T05:42:28.602Z,20.37
2018-02-27T05:43:00.226Z,20.42
2018-02-27T05:43:31.854Z,20.42
2018-02-27T05:44:03.525Z,20.44
2018-02-27T05:44:35.150Z,20.40
2018-02-27T05:45:06.774Z,20.35
2018-02-27T05:45:38.399Z,20.37
2018-02-27T05:46:10.022Z,20.34
2018-02-27T05:46:41.650Z,20.35
2018-02-27T05:47:13.278Z,20.34
2018-02-27T05:47:44.950Z,20.39
2018-02-27T05:48:16.587Z,20.40
2018-02-27T05:48:48.219Z,20.40
2018-02-27T05:49:19.850Z,20.41
2018-02-27T05:49:51.514Z,20.43
2018-02-27T05:50:23.146Z,20.47
2018-02-27T05:50:54.779Z,20.48
2018-02-27T05:51:26.410Z,20.49
2018-02-27T05:51:58.049Z,20.49
2018-02-27T05:52:29.674Z,20.48
2018-02-27T05:53:01.302Z,20.55
2018-02-27T05:53:32.934Z,20.56
2018-02-27T05:54:04.563Z,20.52
2018-02-27T05:54:36.198Z,20.51
2018-02-27T05:55:07.861Z,20.55
2018-02-27T05:55:39.486Z,20.60
2018-02-27T05:56:11.110Z,20.56
2018-02-27T05:56:42.738Z,20.57
2018-02-27T05:57:14.361Z,20.61
2018-02-27T05:57:45.986Z,20.55
2018-02-27T05:58:17.658Z,20.57
2018-02-27T05:58:49.342Z,20.56
2018-02-27T05:59:20.977Z,20.57
2018-02-27T05:59:52.658Z,20.59
2018-02-27T06:00:24.261Z,20.64
2018-02-27T06:00:55.932Z,20.63
2018-02-27T06:01:27.558Z,20.64
2018-02-27T06:01:59.186Z,20.60
2018-02-27T06:02:30.818Z,20.60
2018-02-27T06:03:02.446Z,20.67
2018-02-27T06:03:34.069Z,20.64
2018-02-27T06:04:05.694Z,20.60
2018-02-27T06:04:37.318Z,20.61
2018-02-27T06:05:08.945Z,20.58
2018-02-27T06:05:40.601Z,20.59
2018-02-27T06:06:12.265Z,20.57
2018-02-27T06:06:43.899Z,20.57
2018-02-27T06:07:15.521Z,20.62
2018-02-27T06:07:47.153Z,20.60
2018-02-27T06:08:18.781Z,20.55
2018-02-27T06:08:50.411Z,20.54
2018-02-27T06:09:22.038Z,20.58
2018-02-27T06:09:53.666Z,20.56
2018-02-27T06:10:25.334Z,20.53
2018-02-27T06:10:56.964Z,20.55
2018-02-27T06:11:28.590Z,20.53
2018-02-27T06:12:00.266Z,20.51
2018-02-27T06:12:31.899Z,20.48
2018-02-27T06:13:03.559Z,20.50
2018-02-27T06:13:35.173Z,20.52
2018-02-27T06:14:06.802Z,20.45
2018-02-27T06:14:38.430Z,20.46
2018-02-27T06:15:10.053Z,20.47
2018-02-27T06:15:41.683Z,20.45
2018-02-27T06:16:13.307Z,20.44
2018-02-27T06:16:44.977Z,20.41
2018-02-27T06:17:16.650Z,20.40
2018-02-27T06:17:48.282Z,20.35
2018-02-27T06:18:19.910Z,20.30
2018-02-27T06:18:51.555Z,20.30
2018-02-27T06:19:23.182Z,20.31
2018-02-27T06:19:54.814Z,20.26
2018-02-27T06:20:26.437Z,20.26
2018-02-27T06:20:58.065Z,20.24
2018-02-27T06:21:29.694Z,20.22
2018-02-27T06:22:01.362Z,20.20
2018-02-27T06:22:32.998Z,20.18
2018-02-27T06:23:04.621Z,20.18
2018-02-27T06:23:36.251Z,19.96
2018-02-27T06:24:07.874Z,20.09
2018-02-27T06:24:39.559Z,20.06
2018-02-27T06:25:11.182Z,20.04
2018-02-27T06:25:42.808Z,20.02
2018-02-27T06:26:14.439Z,20.00
2018-02-27T06:26:46.074Z,19.97
2018-02-27T06:27:17.703Z,19.97
2018-02-27T06:27:49.330Z,19.98
2018-02-27T06:28:20.954Z,19.94
2018-02-27T06:28:52.578Z,19.95
2018-02-27T06:29:24.202Z,19.94
2018-02-27T06:29:55.824Z,19.90
2018-02-27T06:30:27.446Z,19.87
2018-02-27T06:30:59.078Z,19.84
2018-02-27T06:31:30.707Z,19.85
2018-02-27T06:32:02.330Z,19.84
2018-02-27T06:32:33.960Z,19.79
2018-02-27T06:33:05.582Z,19.77
2018-02-27T06:33:37.215Z,19.75
2018-02-27T06:34:08.846Z,19.71
2018-02-27T06:34:40.470Z,19.71
2018-02-27T06:35:12.199Z,19.71
2018-02-27T06:35:43.826Z,19.71
2018-02-27T06:36:15.460Z,19.68
2018-02-27T06:36:47.082Z,19.69
2018-02-27T06:37:18.717Z,19.67
2018-02-27T06:37:50.346Z,19.65
2018-02-27T06:38:21.975Z,19.62
2018-02-27T06:38:53.603Z,19.61
2018-02-27T06:39:25.258Z,19.61
2018-02-27T06:39:56.894Z,19.62
2018-02-27T06:40:28.562Z,19.61
2018-02-27T06:41:00.190Z,19.58
2018-02-27T06:41:31.822Z,19.60
2018-02-27T06:42:03.454Z,19.59
2018-02-27T06:42:35.127Z,19.56
2018-02-27T06:43:06.754Z,19.57
2018-02-27T06:43:38.382Z,19.58
2018-02-27T06:44:10.051Z,19.55
2018-02-27T06:44:41.674Z,19.56
2018-02-27T06:45:13.302Z,19.54
2018-02-27T06:45:44.950Z,19.52
2018-02-27T06:46:16.578Z,19.50
2018-02-27T06:46:48.201Z,19.49
2018-02-27T06:47:19.830Z,19.48